sensor_id;sensor_type;location;lat;lon;timestamp;P1;durP1;ratioP1;P2;durP2;ratioP2
19260;SDS011;75986;48.588;9.216;2024-03-29T00:01:41;4.47;;;1.67;;
19260;SDS011;75986;48.588;9.216;2024-03-29T00:04:07;2.83;;;1.58;;
19260;SDS011;75986;48.588;9.216;2024-03-29T00:06:34;3.92;;;1.77;;
19260;SDS011;75986;48.588;9.216;2024-03-29T00:09:00;3.72;;;1.50;;
19260;SDS011;75986;48.588;9.216;2024-03-29T00:11:27;3.58;;;1.65;;
19260;SDS011;75986;48.588;9.216;2024-03-29T00:13:54;3.72;;;1.50;;
19260;SDS011;75986;48.588;9.216;2024-03-29T00:16:23;4.13;;;1.60;;
19260;SDS011;75986;48.588;9.216;2024-03-29T00:18:50;3.72;;;1.60;;
19260;SDS011;75986;48.588;9.216;2024-03-29T00:21:17;4.45;;;1.75;;
19260;SDS011;75986;48.588;9.216;2024-03-29T00:23:44;3.05;;;1.40;;
19260;SDS011;75986;48.588;9.216;2024-03-29T00:26:11;2.85;;;1.45;;
19260;SDS011;75986;48.588;9.216;2024-03-29T00:28:37;3.53;;;1.50;;
19260;SDS011;75986;48.588;9.216;2024-03-29T00:31:04;4.60;;;1.73;;
19260;SDS011;75986;48.588;9.216;2024-03-29T00:33:34;5.55;;;1.50;;
19260;SDS011;75986;48.588;9.216;2024-03-29T00:36:00;2.97;;;1.15;;
19260;SDS011;75986;48.588;9.216;2024-03-29T00:38:27;4.30;;;1.63;;
19260;SDS011;75986;48.588;9.216;2024-03-29T00:40:53;5.20;;;2.13;;
19260;SDS011;75986;48.588;9.216;2024-03-29T00:43:20;5.65;;;1.48;;
19260;SDS011;75986;48.588;9.216;2024-03-29T00:45:46;3.35;;;1.50;;
19260;SDS011;75986;48.588;9.216;2024-03-29T00:48:13;3.80;;;1.48;;
19260;SDS011;75986;48.588;9.216;2024-03-29T00:50:42;4.03;;;1.70;;
19260;SDS011;75986;48.588;9.216;2024-03-29T00:53:09;3.83;;;1.80;;
19260;SDS011;75986;48.588;9.216;2024-03-29T00:55:36;2.95;;;1.42;;
19260;SDS011;75986;48.588;9.216;2024-03-29T00:58:02;5.72;;;1.77;;
19260;SDS011;75986;48.588;9.216;2024-03-29T01:00:29;3.88;;;1.40;;
19260;SDS011;75986;48.588;9.216;2024-03-29T01:02:55;4.32;;;1.67;;
19260;SDS011;75986;48.588;9.216;2024-03-29T01:05:22;5.45;;;1.50;;
19260;SDS011;75986;48.588;9.216;2024-03-29T01:07:51;3.83;;;1.52;;
19260;SDS011;75986;48.588;9.216;2024-03-29T01:10:17;2.25;;;1.27;;
19260;SDS011;75986;48.588;9.216;2024-03-29T01:12:44;4.97;;;1.65;;
19260;SDS011;75986;48.588;9.216;2024-03-29T01:15:11;4.53;;;1.77;;
19260;SDS011;75986;48.588;9.216;2024-03-29T01:17:38;4.10;;;1.90;;
19260;SDS011;75986;48.588;9.216;2024-03-29T01:20:05;3.65;;;1.65;;
19260;SDS011;75986;48.588;9.216;2024-03-29T01:22:32;3.33;;;1.70;;
19260;SDS011;75986;48.588;9.216;2024-03-29T01:25:01;3.08;;;1.40;;
19260;SDS011;75986;48.588;9.216;2024-03-29T01:27:28;3.00;;;1.65;;
19260;SDS011;75986;48.588;9.216;2024-03-29T01:29:55;3.13;;;1.50;;
19260;SDS011;75986;48.588;9.216;2024-03-29T01:32:21;5.13;;;1.35;;
19260;SDS011;75986;48.588;9.216;2024-03-29T01:34:48;2.38;;;1.33;;
19260;SDS011;75986;48.588;9.216;2024-03-29T01:37:14;3.30;;;1.60;;
19260;SDS011;75986;48.588;9.216;2024-03-29T01:39:41;2.30;;;1.48;;
19260;SDS011;75986;48.588;9.216;2024-03-29T01:42:10;4.50;;;1.55;;
19260;SDS011;75986;48.588;9.216;2024-03-29T01:44:36;3.38;;;1.50;;
19260;SDS011;75986;48.588;9.216;2024-03-29T01:47:03;4.15;;;1.50;;
19260;SDS011;75986;48.588;9.216;2024-03-29T01:49:30;4.80;;;1.27;;
19260;SDS011;75986;48.588;9.216;2024-03-29T01:51:57;3.90;;;1.75;;
19260;SDS011;75986;48.588;9.216;2024-03-29T01:54:24;2.90;;;1.30;;
19260;SDS011;75986;48.588;9.216;2024-03-29T01:56:51;4.30;;;1.48;;
19260;SDS011;75986;48.588;9.216;2024-03-29T01:59:20;3.05;;;1.40;;
19260;SDS011;75986;48.588;9.216;2024-03-29T02:01:46;4.88;;;1.90;;
19260;SDS011;75986;48.588;9.216;2024-03-29T02:04:13;3.97;;;1.40;;
19260;SDS011;75986;48.588;9.216;2024-03-29T02:06:40;3.95;;;1.52;;
19260;SDS011;75986;48.588;9.216;2024-03-29T02:09:07;4.38;;;1.70;;
19260;SDS011;75986;48.588;9.216;2024-03-29T02:11:34;5.18;;;2.00;;
19260;SDS011;75986;48.588;9.216;2024-03-29T02:14:01;2.45;;;1.35;;
19260;SDS011;75986;48.588;9.216;2024-03-29T02:16:30;2.95;;;1.48;;
19260;SDS011;75986;48.588;9.216;2024-03-29T02:18:56;5.28;;;1.58;;
19260;SDS011;75986;48.588;9.216;2024-03-29T02:21:23;3.67;;;1.80;;
19260;SDS011;75986;48.588;9.216;2024-03-29T02:23:57;4.10;;;1.52;;
19260;SDS011;75986;48.588;9.216;2024-03-29T02:26:25;5.88;;;1.83;;
19260;SDS011;75986;48.588;9.216;2024-03-29T02:28:52;3.05;;;1.20;;
19260;SDS011;75986;48.588;9.216;2024-03-29T02:31:18;2.17;;;1.30;;
19260;SDS011;75986;48.588;9.216;2024-03-29T02:33:45;1.80;;;1.00;;
19260;SDS011;75986;48.588;9.216;2024-03-29T02:36:12;2.92;;;1.40;;
19260;SDS011;75986;48.588;9.216;2024-03-29T02:38:38;3.15;;;1.33;;
19260;SDS011;75986;48.588;9.216;2024-03-29T02:41:08;2.10;;;1.20;;
19260;SDS011;75986;48.588;9.216;2024-03-29T02:43:34;6.55;;;1.42;;
19260;SDS011;75986;48.588;9.216;2024-03-29T02:46:01;2.70;;;1.40;;
19260;SDS011;75986;48.588;9.216;2024-03-29T02:48:27;2.20;;;1.17;;
19260;SDS011;75986;48.588;9.216;2024-03-29T02:50:56;2.25;;;1.15;;
19260;SDS011;75986;48.588;9.216;2024-03-29T02:53:23;4.10;;;1.30;;
19260;SDS011;75986;48.588;9.216;2024-03-29T02:55:49;3.92;;;1.48;;
19260;SDS011;75986;48.588;9.216;2024-03-29T02:58:19;4.18;;;1.67;;
19260;SDS011;75986;48.588;9.216;2024-03-29T03:00:45;3.90;;;1.65;;
19260;SDS011;75986;48.588;9.216;2024-03-29T03:03:13;3.63;;;1.77;;
19260;SDS011;75986;48.588;9.216;2024-03-29T03:05:41;3.33;;;1.40;;
19260;SDS011;75986;48.588;9.216;2024-03-29T03:08:08;3.70;;;1.55;;
19260;SDS011;75986;48.588;9.216;2024-03-29T03:10:50;3.97;;;1.80;;
19260;SDS011;75986;48.588;9.216;2024-03-29T03:13:25;3.03;;;1.30;;
19260;SDS011;75986;48.588;9.216;2024-03-29T03:15:52;4.55;;;1.42;;
19260;SDS011;75986;48.588;9.216;2024-03-29T03:18:19;3.63;;;1.35;;
19260;SDS011;75986;48.588;9.216;2024-03-29T03:20:49;2.75;;;1.20;;
19260;SDS011;75986;48.588;9.216;2024-03-29T03:23:16;3.35;;;1.40;;
19260;SDS011;75986;48.588;9.216;2024-03-29T03:25:43;3.95;;;1.20;;
19260;SDS011;75986;48.588;9.216;2024-03-29T03:28:15;4.95;;;1.50;;
19260;SDS011;75986;48.588;9.216;2024-03-29T03:30:44;3.45;;;1.23;;
19260;SDS011;75986;48.588;9.216;2024-03-29T03:33:10;4.40;;;1.63;;
19260;SDS011;75986;48.588;9.216;2024-03-29T03:35:37;2.42;;;1.48;;
19260;SDS011;75986;48.588;9.216;2024-03-29T03:38:04;6.07;;;1.63;;
19260;SDS011;75986;48.588;9.216;2024-03-29T03:40:30;3.40;;;1.25;;
19260;SDS011;75986;48.588;9.216;2024-03-29T03:42:56;2.65;;;1.30;;
19260;SDS011;75986;48.588;9.216;2024-03-29T03:45:23;2.30;;;1.08;;
19260;SDS011;75986;48.588;9.216;2024-03-29T03:47:52;1.90;;;1.08;;
19260;SDS011;75986;48.588;9.216;2024-03-29T03:50:19;3.65;;;1.20;;
19260;SDS011;75986;48.588;9.216;2024-03-29T03:52:45;2.05;;;1.10;;
19260;SDS011;75986;48.588;9.216;2024-03-29T03:55:12;5.55;;;1.50;;
19260;SDS011;75986;48.588;9.216;2024-03-29T03:57:39;2.42;;;1.30;;
19260;SDS011;75986;48.588;9.216;2024-03-29T04:00:06;4.03;;;1.17;;
19260;SDS011;75986;48.588;9.216;2024-03-29T04:02:42;2.50;;;1.35;;
19260;SDS011;75986;48.588;9.216;2024-03-29T04:05:15;2.35;;;1.20;;
19260;SDS011;75986;48.588;9.216;2024-03-29T04:07:42;2.60;;;1.33;;
19260;SDS011;75986;48.588;9.216;2024-03-29T04:10:09;4.72;;;1.30;;
19260;SDS011;75986;48.588;9.216;2024-03-29T04:12:36;2.20;;;1.20;;
19260;SDS011;75986;48.588;9.216;2024-03-29T04:15:03;3.25;;;1.65;;
19260;SDS011;75986;48.588;9.216;2024-03-29T04:17:31;3.58;;;1.27;;
19260;SDS011;75986;48.588;9.216;2024-03-29T04:19:58;2.38;;;1.33;;
19260;SDS011;75986;48.588;9.216;2024-03-29T04:22:27;4.75;;;1.30;;
19260;SDS011;75986;48.588;9.216;2024-03-29T04:24:54;5.70;;;1.40;;
19260;SDS011;75986;48.588;9.216;2024-03-29T04:27:21;1.95;;;1.08;;
19260;SDS011;75986;48.588;9.216;2024-03-29T04:29:50;3.30;;;1.42;;
19260;SDS011;75986;48.588;9.216;2024-03-29T04:32:17;3.83;;;1.80;;
19260;SDS011;75986;48.588;9.216;2024-03-29T04:34:45;3.13;;;1.40;;
19260;SDS011;75986;48.588;9.216;2024-03-29T04:37:13;2.55;;;1.15;;
19260;SDS011;75986;48.588;9.216;2024-03-29T04:39:42;3.53;;;1.35;;
19260;SDS011;75986;48.588;9.216;2024-03-29T04:42:09;5.03;;;1.55;;
19260;SDS011;75986;48.588;9.216;2024-03-29T04:44:36;4.65;;;1.58;;
19260;SDS011;75986;48.588;9.216;2024-03-29T04:47:03;3.03;;;1.25;;
19260;SDS011;75986;48.588;9.216;2024-03-29T04:49:30;3.50;;;1.58;;
19260;SDS011;75986;48.588;9.216;2024-03-29T04:51:58;2.38;;;1.33;;
19260;SDS011;75986;48.588;9.216;2024-03-29T04:54:24;2.05;;;1.30;;
19260;SDS011;75986;48.588;9.216;2024-03-29T04:56:53;2.72;;;1.30;;
19260;SDS011;75986;48.588;9.216;2024-03-29T04:59:20;4.30;;;1.52;;
19260;SDS011;75986;48.588;9.216;2024-03-29T05:01:47;2.35;;;1.15;;
19260;SDS011;75986;48.588;9.216;2024-03-29T05:04:13;11.02;;;1.48;;
19260;SDS011;75986;48.588;9.216;2024-03-29T05:06:40;3.22;;;1.20;;
19260;SDS011;75986;48.588;9.216;2024-03-29T05:09:07;2.33;;;1.40;;
19260;SDS011;75986;48.588;9.216;2024-03-29T05:11:34;3.13;;;1.45;;
19260;SDS011;75986;48.588;9.216;2024-03-29T05:14:03;3.03;;;1.10;;
19260;SDS011;75986;48.588;9.216;2024-03-29T05:16:30;1.67;;;1.10;;
19260;SDS011;75986;48.588;9.216;2024-03-29T05:18:56;2.83;;;1.17;;
19260;SDS011;75986;48.588;9.216;2024-03-29T05:21:22;2.42;;;1.40;;
19260;SDS011;75986;48.588;9.216;2024-03-29T05:23:49;3.67;;;1.27;;
19260;SDS011;75986;48.588;9.216;2024-03-29T05:26:15;7.15;;;1.40;;
19260;SDS011;75986;48.588;9.216;2024-03-29T05:28:42;4.43;;;1.10;;
19260;SDS011;75986;48.588;9.216;2024-03-29T05:31:13;5.65;;;1.85;;
19260;SDS011;75986;48.588;9.216;2024-03-29T05:33:40;1.90;;;1.17;;
19260;SDS011;75986;48.588;9.216;2024-03-29T05:36:07;2.55;;;1.13;;
19260;SDS011;75986;48.588;9.216;2024-03-29T05:38:34;3.70;;;1.23;;
19260;SDS011;75986;48.588;9.216;2024-03-29T05:41:00;3.60;;;1.10;;
19260;SDS011;75986;48.588;9.216;2024-03-29T05:43:27;2.65;;;1.50;;
19260;SDS011;75986;48.588;9.216;2024-03-29T05:45:53;2.00;;;1.20;;
19260;SDS011;75986;48.588;9.216;2024-03-29T05:48:23;2.95;;;1.08;;
19260;SDS011;75986;48.588;9.216;2024-03-29T05:50:50;2.10;;;1.20;;
19260;SDS011;75986;48.588;9.216;2024-03-29T05:53:17;1.75;;;1.20;;
19260;SDS011;75986;48.588;9.216;2024-03-29T05:55:43;5.22;;;1.63;;
19260;SDS011;75986;48.588;9.216;2024-03-29T05:58:10;3.10;;;1.35;;
19260;SDS011;75986;48.588;9.216;2024-03-29T06:00:36;2.78;;;1.33;;
19260;SDS011;75986;48.588;9.216;2024-03-29T06:03:03;3.97;;;1.33;;
19260;SDS011;75986;48.588;9.216;2024-03-29T06:05:32;4.35;;;1.30;;
19260;SDS011;75986;48.588;9.216;2024-03-29T06:07:59;2.42;;;1.35;;
19260;SDS011;75986;48.588;9.216;2024-03-29T06:10:25;2.10;;;1.20;;
19260;SDS011;75986;48.588;9.216;2024-03-29T06:12:52;4.25;;;1.40;;
19260;SDS011;75986;48.588;9.216;2024-03-29T06:15:18;2.40;;;1.30;;
19260;SDS011;75986;48.588;9.216;2024-03-29T06:18:00;2.60;;;1.25;;
19260;SDS011;75986;48.588;9.216;2024-03-29T06:20:27;4.53;;;1.20;;
19260;SDS011;75986;48.588;9.216;2024-03-29T06:22:56;2.10;;;1.23;;
19260;SDS011;75986;48.588;9.216;2024-03-29T06:25:23;2.10;;;1.23;;
19260;SDS011;75986;48.588;9.216;2024-03-29T06:27:49;4.13;;;1.25;;
19260;SDS011;75986;48.588;9.216;2024-03-29T06:30:16;4.30;;;1.55;;
19260;SDS011;75986;48.588;9.216;2024-03-29T06:32:43;5.18;;;1.60;;
19260;SDS011;75986;48.588;9.216;2024-03-29T06:35:10;4.28;;;1.42;;
19260;SDS011;75986;48.588;9.216;2024-03-29T06:37:37;3.20;;;1.40;;
19260;SDS011;75986;48.588;9.216;2024-03-29T06:40:07;6.18;;;1.42;;
19260;SDS011;75986;48.588;9.216;2024-03-29T06:42:34;4.25;;;1.27;;
19260;SDS011;75986;48.588;9.216;2024-03-29T06:45:01;4.35;;;1.30;;
19260;SDS011;75986;48.588;9.216;2024-03-29T06:47:28;3.30;;;1.30;;
19260;SDS011;75986;48.588;9.216;2024-03-29T06:49:55;4.85;;;1.55;;
19260;SDS011;75986;48.588;9.216;2024-03-29T06:52:21;5.47;;;1.58;;
19260;SDS011;75986;48.588;9.216;2024-03-29T06:54:48;5.00;;;1.52;;
19260;SDS011;75986;48.588;9.216;2024-03-29T06:57:18;4.07;;;1.20;;
19260;SDS011;75986;48.588;9.216;2024-03-29T06:59:45;5.10;;;1.52;;
19260;SDS011;75986;48.588;9.216;2024-03-29T07:02:12;3.33;;;1.00;;
19260;SDS011;75986;48.588;9.216;2024-03-29T07:04:39;5.80;;;1.80;;
19260;SDS011;75986;48.588;9.216;2024-03-29T07:07:05;7.43;;;1.85;;
19260;SDS011;75986;48.588;9.216;2024-03-29T07:09:32;6.75;;;1.88;;
19260;SDS011;75986;48.588;9.216;2024-03-29T07:11:58;5.32;;;1.77;;
19260;SDS011;75986;48.588;9.216;2024-03-29T07:14:28;6.93;;;1.75;;
19260;SDS011;75986;48.588;9.216;2024-03-29T07:16:54;6.47;;;1.95;;
19260;SDS011;75986;48.588;9.216;2024-03-29T07:19:20;7.35;;;1.98;;
19260;SDS011;75986;48.588;9.216;2024-03-29T07:21:47;9.43;;;1.95;;
19260;SDS011;75986;48.588;9.216;2024-03-29T07:24:13;7.93;;;2.22;;
19260;SDS011;75986;48.588;9.216;2024-03-29T07:26:40;7.75;;;2.65;;
19260;SDS011;75986;48.588;9.216;2024-03-29T07:29:07;9.73;;;2.17;;
19260;SDS011;75986;48.588;9.216;2024-03-29T07:31:36;9.68;;;2.90;;
19260;SDS011;75986;48.588;9.216;2024-03-29T07:34:03;13.55;;;2.70;;
19260;SDS011;75986;48.588;9.216;2024-03-29T07:36:29;13.18;;;2.75;;
19260;SDS011;75986;48.588;9.216;2024-03-29T07:38:57;10.25;;;2.90;;
19260;SDS011;75986;48.588;9.216;2024-03-29T07:41:24;10.30;;;2.85;;
19260;SDS011;75986;48.588;9.216;2024-03-29T07:43:51;8.25;;;2.38;;
19260;SDS011;75986;48.588;9.216;2024-03-29T07:46:18;10.23;;;2.50;;
19260;SDS011;75986;48.588;9.216;2024-03-29T07:48:47;6.65;;;2.38;;
19260;SDS011;75986;48.588;9.216;2024-03-29T07:51:14;14.15;;;2.95;;
19260;SDS011;75986;48.588;9.216;2024-03-29T07:53:41;10.48;;;2.72;;
19260;SDS011;75986;48.588;9.216;2024-03-29T07:56:07;8.93;;;3.03;;
19260;SDS011;75986;48.588;9.216;2024-03-29T07:58:34;7.15;;;2.28;;
19260;SDS011;75986;48.588;9.216;2024-03-29T08:01:00;8.63;;;2.72;;
19260;SDS011;75986;48.588;9.216;2024-03-29T08:03:27;10.18;;;3.10;;
19260;SDS011;75986;48.588;9.216;2024-03-29T08:05:58;15.50;;;3.28;;
19260;SDS011;75986;48.588;9.216;2024-03-29T08:08:25;7.80;;;2.97;;
19260;SDS011;75986;48.588;9.216;2024-03-29T08:10:52;12.82;;;3.33;;
19260;SDS011;75986;48.588;9.216;2024-03-29T08:13:19;12.50;;;3.20;;
19260;SDS011;75986;48.588;9.216;2024-03-29T08:15:46;9.48;;;3.20;;
19260;SDS011;75986;48.588;9.216;2024-03-29T08:18:12;15.73;;;3.55;;
19260;SDS011;75986;48.588;9.216;2024-03-29T08:20:39;13.85;;;3.28;;
19260;SDS011;75986;48.588;9.216;2024-03-29T08:23:08;13.02;;;3.28;;
19260;SDS011;75986;48.588;9.216;2024-03-29T08:25:35;8.00;;;2.97;;
19260;SDS011;75986;48.588;9.216;2024-03-29T08:28:01;9.90;;;3.30;;
19260;SDS011;75986;48.588;9.216;2024-03-29T08:30:28;8.88;;;2.90;;
19260;SDS011;75986;48.588;9.216;2024-03-29T08:32:54;11.48;;;3.38;;
19260;SDS011;75986;48.588;9.216;2024-03-29T08:35:21;13.52;;;3.03;;
19260;SDS011;75986;48.588;9.216;2024-03-29T08:37:47;15.30;;;3.70;;
19260;SDS011;75986;48.588;9.216;2024-03-29T08:40:17;9.23;;;3.35;;
19260;SDS011;75986;48.588;9.216;2024-03-29T08:42:43;11.23;;;3.08;;
19260;SDS011;75986;48.588;9.216;2024-03-29T08:45:10;10.15;;;3.40;;
19260;SDS011;75986;48.588;9.216;2024-03-29T08:47:37;14.63;;;4.03;;
19260;SDS011;75986;48.588;9.216;2024-03-29T08:50:04;10.90;;;2.90;;
19260;SDS011;75986;48.588;9.216;2024-03-29T08:52:31;12.38;;;3.00;;
19260;SDS011;75986;48.588;9.216;2024-03-29T08:54:57;10.63;;;3.20;;
19260;SDS011;75986;48.588;9.216;2024-03-29T08:57:27;14.18;;;3.08;;
19260;SDS011;75986;48.588;9.216;2024-03-29T08:59:53;9.63;;;3.00;;
19260;SDS011;75986;48.588;9.216;2024-03-29T09:02:20;17.33;;;3.88;;
19260;SDS011;75986;48.588;9.216;2024-03-29T09:04:46;8.75;;;3.20;;
19260;SDS011;75986;48.588;9.216;2024-03-29T09:07:13;8.82;;;3.45;;
19260;SDS011;75986;48.588;9.216;2024-03-29T09:09:39;10.95;;;3.10;;
19260;SDS011;75986;48.588;9.216;2024-03-29T09:12:06;8.85;;;3.50;;
19260;SDS011;75986;48.588;9.216;2024-03-29T09:14:35;14.73;;;3.10;;
19260;SDS011;75986;48.588;9.216;2024-03-29T09:17:02;13.10;;;3.70;;
19260;SDS011;75986;48.588;9.216;2024-03-29T09:19:29;11.18;;;3.58;;
19260;SDS011;75986;48.588;9.216;2024-03-29T09:21:56;10.18;;;3.33;;
19260;SDS011;75986;48.588;9.216;2024-03-29T09:24:22;12.27;;;3.50;;
19260;SDS011;75986;48.588;9.216;2024-03-29T09:26:49;14.57;;;3.67;;
19260;SDS011;75986;48.588;9.216;2024-03-29T09:29:15;10.40;;;3.25;;
19260;SDS011;75986;48.588;9.216;2024-03-29T09:31:44;14.82;;;3.88;;
19260;SDS011;75986;48.588;9.216;2024-03-29T09:34:11;17.35;;;3.63;;
19260;SDS011;75986;48.588;9.216;2024-03-29T09:36:38;14.73;;;3.80;;
19260;SDS011;75986;48.588;9.216;2024-03-29T09:39:04;11.60;;;3.05;;
19260;SDS011;75986;48.588;9.216;2024-03-29T09:41:31;10.02;;;3.40;;
19260;SDS011;75986;48.588;9.216;2024-03-29T09:43:59;10.80;;;2.88;;
19260;SDS011;75986;48.588;9.216;2024-03-29T09:46:28;10.73;;;3.47;;
19260;SDS011;75986;48.588;9.216;2024-03-29T09:48:58;9.43;;;3.50;;
19260;SDS011;75986;48.588;9.216;2024-03-29T09:51:26;11.52;;;3.45;;
19260;SDS011;75986;48.588;9.216;2024-03-29T09:53:53;8.38;;;3.45;;
19260;SDS011;75986;48.588;9.216;2024-03-29T09:56:21;14.43;;;3.70;;
19260;SDS011;75986;48.588;9.216;2024-03-29T09:58:49;8.32;;;3.30;;
19260;SDS011;75986;48.588;9.216;2024-03-29T10:01:16;14.48;;;3.30;;
19260;SDS011;75986;48.588;9.216;2024-03-29T10:03:44;10.43;;;3.53;;
19260;SDS011;75986;48.588;9.216;2024-03-29T10:06:17;14.52;;;3.85;;
19260;SDS011;75986;48.588;9.216;2024-03-29T10:08:45;10.90;;;3.70;;
19260;SDS011;75986;48.588;9.216;2024-03-29T10:11:12;12.73;;;3.67;;
19260;SDS011;75986;48.588;9.216;2024-03-29T10:13:40;6.95;;;3.17;;
19260;SDS011;75986;48.588;9.216;2024-03-29T10:16:07;10.90;;;3.65;;
19260;SDS011;75986;48.588;9.216;2024-03-29T10:18:35;13.27;;;3.00;;
19260;SDS011;75986;48.588;9.216;2024-03-29T10:21:02;9.95;;;3.83;;
19260;SDS011;75986;48.588;9.216;2024-03-29T10:23:33;7.10;;;2.58;;
19260;SDS011;75986;48.588;9.216;2024-03-29T10:26:01;8.00;;;3.00;;
19260;SDS011;75986;48.588;9.216;2024-03-29T10:28:29;10.18;;;3.20;;
19260;SDS011;75986;48.588;9.216;2024-03-29T10:30:58;9.15;;;3.28;;
19260;SDS011;75986;48.588;9.216;2024-03-29T10:33:27;11.35;;;3.88;;
19260;SDS011;75986;48.588;9.216;2024-03-29T10:35:54;10.18;;;3.10;;
19260;SDS011;75986;48.588;9.216;2024-03-29T10:38:21;9.60;;;3.15;;
19260;SDS011;75986;48.588;9.216;2024-03-29T10:40:50;12.27;;;3.95;;
19260;SDS011;75986;48.588;9.216;2024-03-29T10:43:18;9.98;;;2.97;;
19260;SDS011;75986;48.588;9.216;2024-03-29T10:45:46;12.18;;;2.92;;
19260;SDS011;75986;48.588;9.216;2024-03-29T10:48:14;6.68;;;3.13;;
19260;SDS011;75986;48.588;9.216;2024-03-29T10:50:42;10.82;;;3.28;;
19260;SDS011;75986;48.588;9.216;2024-03-29T10:53:09;8.93;;;3.22;;
19260;SDS011;75986;48.588;9.216;2024-03-29T10:55:36;13.18;;;3.30;;
19260;SDS011;75986;48.588;9.216;2024-03-29T10:58:06;10.48;;;3.35;;
19260;SDS011;75986;48.588;9.216;2024-03-29T11:00:37;9.18;;;3.22;;
19260;SDS011;75986;48.588;9.216;2024-03-29T11:03:09;9.80;;;3.08;;
19260;SDS011;75986;48.588;9.216;2024-03-29T11:05:39;11.52;;;3.30;;
19260;SDS011;75986;48.588;9.216;2024-03-29T11:08:10;7.25;;;3.03;;
19260;SDS011;75986;48.588;9.216;2024-03-29T11:10:39;9.45;;;3.15;;
19260;SDS011;75986;48.588;9.216;2024-03-29T11:13:11;11.27;;;3.20;;
19260;SDS011;75986;48.588;9.216;2024-03-29T11:15:44;11.38;;;2.35;;
19260;SDS011;75986;48.588;9.216;2024-03-29T11:18:13;15.43;;;3.53;;
19260;SDS011;75986;48.588;9.216;2024-03-29T11:20:41;9.95;;;3.55;;
19260;SDS011;75986;48.588;9.216;2024-03-29T11:23:09;7.95;;;3.17;;
19260;SDS011;75986;48.588;9.216;2024-03-29T11:25:41;14.02;;;3.90;;
19260;SDS011;75986;48.588;9.216;2024-03-29T11:28:12;11.65;;;3.08;;
19260;SDS011;75986;48.588;9.216;2024-03-29T11:30:40;9.95;;;3.40;;
19260;SDS011;75986;48.588;9.216;2024-03-29T11:33:08;12.85;;;3.95;;
19260;SDS011;75986;48.588;9.216;2024-03-29T11:35:49;10.07;;;3.53;;
19260;SDS011;75986;48.588;9.216;2024-03-29T11:38:16;10.48;;;3.25;;
19260;SDS011;75986;48.588;9.216;2024-03-29T11:40:52;10.68;;;3.40;;
19260;SDS011;75986;48.588;9.216;2024-03-29T11:43:22;10.40;;;3.33;;
19260;SDS011;75986;48.588;9.216;2024-03-29T11:45:49;13.18;;;3.72;;
19260;SDS011;75986;48.588;9.216;2024-03-29T11:48:17;9.27;;;3.42;;
19260;SDS011;75986;48.588;9.216;2024-03-29T11:50:49;12.07;;;3.15;;
19260;SDS011;75986;48.588;9.216;2024-03-29T11:53:15;12.23;;;3.78;;
19260;SDS011;75986;48.588;9.216;2024-03-29T11:55:42;8.77;;;3.35;;
19260;SDS011;75986;48.588;9.216;2024-03-29T11:58:08;12.50;;;3.78;;
19260;SDS011;75986;48.588;9.216;2024-03-29T12:00:37;10.50;;;3.08;;
19260;SDS011;75986;48.588;9.216;2024-03-29T12:03:05;11.90;;;3.50;;
19260;SDS011;75986;48.588;9.216;2024-03-29T12:05:31;8.13;;;3.15;;
19260;SDS011;75986;48.588;9.216;2024-03-29T12:07:58;8.98;;;2.70;;
19260;SDS011;75986;48.588;9.216;2024-03-29T12:10:26;11.13;;;3.60;;
19260;SDS011;75986;48.588;9.216;2024-03-29T12:12:55;10.50;;;2.88;;
19260;SDS011;75986;48.588;9.216;2024-03-29T12:15:23;7.78;;;3.10;;
19260;SDS011;75986;48.588;9.216;2024-03-29T12:17:56;5.28;;;2.60;;
19260;SDS011;75986;48.588;9.216;2024-03-29T12:20:24;11.30;;;2.90;;
19260;SDS011;75986;48.588;9.216;2024-03-29T12:22:51;10.02;;;3.08;;
19260;SDS011;75986;48.588;9.216;2024-03-29T12:25:19;5.40;;;2.47;;
19260;SDS011;75986;48.588;9.216;2024-03-29T12:27:46;6.53;;;2.45;;
19260;SDS011;75986;48.588;9.216;2024-03-29T12:30:13;6.55;;;2.92;;
19260;SDS011;75986;48.588;9.216;2024-03-29T12:32:40;7.80;;;2.97;;
19260;SDS011;75986;48.588;9.216;2024-03-29T12:35:12;8.10;;;2.67;;
19260;SDS011;75986;48.588;9.216;2024-03-29T12:37:47;10.45;;;2.60;;
19260;SDS011;75986;48.588;9.216;2024-03-29T12:40:15;4.68;;;2.45;;
19260;SDS011;75986;48.588;9.216;2024-03-29T12:42:42;4.68;;;2.03;;
19260;SDS011;75986;48.588;9.216;2024-03-29T12:45:09;9.38;;;2.78;;
19260;SDS011;75986;48.588;9.216;2024-03-29T12:47:36;7.75;;;2.70;;
19260;SDS011;75986;48.588;9.216;2024-03-29T12:50:03;10.38;;;2.75;;
19260;SDS011;75986;48.588;9.216;2024-03-29T12:52:38;5.35;;;1.88;;
19260;SDS011;75986;48.588;9.216;2024-03-29T12:55:06;4.50;;;2.20;;
19260;SDS011;75986;48.588;9.216;2024-03-29T12:57:33;6.13;;;2.60;;
19260;SDS011;75986;48.588;9.216;2024-03-29T13:00:00;6.60;;;2.63;;
19260;SDS011;75986;48.588;9.216;2024-03-29T13:02:27;5.38;;;2.45;;
19260;SDS011;75986;48.588;9.216;2024-03-29T13:04:54;8.27;;;2.88;;
19260;SDS011;75986;48.588;9.216;2024-03-29T13:07:20;7.63;;;2.25;;
19260;SDS011;75986;48.588;9.216;2024-03-29T13:09:49;5.90;;;2.33;;
19260;SDS011;75986;48.588;9.216;2024-03-29T13:12:16;6.65;;;2.55;;
19260;SDS011;75986;48.588;9.216;2024-03-29T13:14:43;8.27;;;2.83;;
19260;SDS011;75986;48.588;9.216;2024-03-29T13:17:09;5.45;;;2.50;;
19260;SDS011;75986;48.588;9.216;2024-03-29T13:19:36;5.63;;;2.28;;
19260;SDS011;75986;48.588;9.216;2024-03-29T13:22:03;8.88;;;2.28;;
19260;SDS011;75986;48.588;9.216;2024-03-29T13:24:29;8.35;;;2.45;;
19260;SDS011;75986;48.588;9.216;2024-03-29T13:26:58;5.82;;;2.30;;
19260;SDS011;75986;48.588;9.216;2024-03-29T13:29:25;6.85;;;2.85;;
19260;SDS011;75986;48.588;9.216;2024-03-29T13:31:51;9.73;;;2.70;;
19260;SDS011;75986;48.588;9.216;2024-03-29T13:34:18;7.53;;;2.40;;
19260;SDS011;75986;48.588;9.216;2024-03-29T13:36:44;6.70;;;2.35;;
19260;SDS011;75986;48.588;9.216;2024-03-29T13:39:12;7.03;;;3.03;;
19260;SDS011;75986;48.588;9.216;2024-03-29T13:41:38;5.70;;;2.55;;
19260;SDS011;75986;48.588;9.216;2024-03-29T13:44:08;6.47;;;2.58;;
19260;SDS011;75986;48.588;9.216;2024-03-29T13:46:34;3.95;;;1.90;;
19260;SDS011;75986;48.588;9.216;2024-03-29T13:49:01;6.80;;;2.65;;
19260;SDS011;75986;48.588;9.216;2024-03-29T13:51:28;7.40;;;2.70;;
19260;SDS011;75986;48.588;9.216;2024-03-29T13:53:55;7.55;;;2.22;;
19260;SDS011;75986;48.588;9.216;2024-03-29T13:56:22;4.38;;;2.00;;
19260;SDS011;75986;48.588;9.216;2024-03-29T13:58:48;5.07;;;2.00;;
19260;SDS011;75986;48.588;9.216;2024-03-29T14:01:17;7.50;;;2.30;;
19260;SDS011;75986;48.588;9.216;2024-03-29T14:03:44;5.35;;;2.15;;
19260;SDS011;75986;48.588;9.216;2024-03-29T14:06:10;8.10;;;2.35;;
19260;SDS011;75986;48.588;9.216;2024-03-29T14:08:37;6.55;;;2.30;;
19260;SDS011;75986;48.588;9.216;2024-03-29T14:11:03;6.85;;;2.55;;
19260;SDS011;75986;48.588;9.216;2024-03-29T14:13:30;8.40;;;2.60;;
19260;SDS011;75986;48.588;9.216;2024-03-29T14:15:57;9.20;;;2.60;;
19260;SDS011;75986;48.588;9.216;2024-03-29T14:18:27;10.32;;;2.28;;
19260;SDS011;75986;48.588;9.216;2024-03-29T14:20:53;6.35;;;2.00;;
19260;SDS011;75986;48.588;9.216;2024-03-29T14:23:20;7.20;;;2.15;;
19260;SDS011;75986;48.588;9.216;2024-03-29T14:25:46;6.45;;;2.42;;
19260;SDS011;75986;48.588;9.216;2024-03-29T14:28:13;6.25;;;1.80;;
19260;SDS011;75986;48.588;9.216;2024-03-29T14:30:39;7.15;;;2.00;;
19260;SDS011;75986;48.588;9.216;2024-03-29T14:33:06;7.15;;;2.25;;
19260;SDS011;75986;48.588;9.216;2024-03-29T14:35:35;5.80;;;1.90;;
19260;SDS011;75986;48.588;9.216;2024-03-29T14:38:01;5.72;;;2.53;;
19260;SDS011;75986;48.588;9.216;2024-03-29T14:40:28;7.43;;;2.58;;
19260;SDS011;75986;48.588;9.216;2024-03-29T14:42:55;7.60;;;2.35;;
19260;SDS011;75986;48.588;9.216;2024-03-29T14:45:21;7.05;;;2.00;;
19260;SDS011;75986;48.588;9.216;2024-03-29T14:47:48;4.50;;;1.90;;